Time;durP1;ratioP1;P1;durP2;ratioP2;P2;SDS_P1;SDS_P2;PMS_P1;PMS_P2;Temp;Humidity;BMP_temperature;BMP_pressure;BME280_temperature;BME280_humidity;BME280_pressure;Samples;Min_cycle;Max_cycle;Signal;HPM_P1;HPM_P2
2021/12/04 00:02:07;;;;;;;18.00;15.80;;;4.50;99.90;;;;;;5008455;28;20046;-86
2021/12/04 00:04:36;;;;;;;23.50;18.52;;;4.40;99.90;;;;;;5004540;28;20479;-90
2021/12/04 00:07:07;;;;;;;21.75;17.33;;;4.40;99.90;;;;;;5006775;28;20038;-87
2021/12/04 00:09:34;;;;;;;24.65;18.63;;;4.40;99.90;;;;;;4993117;28;20026;-89
2021/12/04 00:12:02;;;;;;;21.80;17.38;;;4.40;99.90;;;;;;5020259;28;20057;-91
2021/12/04 00:14:33;;;;;;;23.42;18.42;;;4.40;99.90;;;;;;5001426;28;20034;-91
2021/12/04 00:17:01;;;;;;;23.23;16.98;;;4.40;99.90;;;;;;5002486;28;20034;-92
2021/12/04 00:19:27;;;;;;;18.95;15.82;;;4.40;99.90;;;;;;5002776;28;20080;-90
2021/12/04 00:21:54;;;;;;;21.27;17.08;;;4.40;99.90;;;;;;5005983;28;20057;-90
2021/12/04 00:24:21;;;;;;;20.65;16.75;;;4.40;99.90;;;;;;5015302;28;20053;-91
2021/12/04 00:26:48;;;;;;;22.40;17.73;;;4.40;99.90;;;;;;5024558;28;20053;-87
2021/12/04 00:29:14;;;;;;;20.63;16.98;;;4.50;99.90;;;;;;5008244;28;20034;-90
2021/12/04 00:33:43;;;;;;;25.92;19.38;;;4.40;99.90;;;;;;5073709;27;2032776;-90
2021/12/04 00:36:13;;;;;;;21.80;16.92;;;4.40;99.90;;;;;;5103752;28;20028;-88
2021/12/04 00:49:19;;;;;;;19.70;15.38;;;4.50;99.90;;;;;;5116346;28;20100;-93
2021/12/04 00:51:53;;;;;;;22.58;17.48;;;4.50;99.90;;;;;;5097535;28;20020;-92
2021/12/04 00:54:19;;;;;;;25.52;18.58;;;4.50;99.90;;;;;;5097211;28;20020;-90
2021/12/04 00:56:46;;;;;;;20.33;16.48;;;4.50;99.90;;;;;;5097619;28;20130;-91
2021/12/04 00:59:12;;;;;;;19.15;15.45;;;4.50;99.90;;;;;;5096043;28;20077;-93
2021/12/04 01:01:39;;;;;;;19.60;15.65;;;4.50;99.90;;;;;;5096902;28;20493;-93
2021/12/04 01:04:09;;;;;;;18.17;15.30;;;4.50;99.90;;;;;;5097490;28;20032;-91
2021/12/04 01:06:35;;;;;;;20.48;15.38;;;4.50;99.90;;;;;;5097857;28;20473;-92
2021/12/04 01:09:01;;;;;;;23.80;18.25;;;4.50;99.90;;;;;;5097157;28;20069;-92
2021/12/04 01:11:27;;;;;;;21.42;17.35;;;4.40;99.90;;;;;;5097533;28;20020;-92
2021/12/04 01:13:52;;;;;;;26.05;20.15;;;4.50;99.90;;;;;;5097066;28;20026;-94
2021/12/04 01:16:18;;;;;;;25.35;19.70;;;4.50;99.90;;;;;;5098956;28;20020;-92
2021/12/04 01:18:44;;;;;;;24.42;17.90;;;4.50;99.90;;;;;;5098638;28;20115;-92
2021/12/04 01:21:10;;;;;;;23.75;18.70;;;4.50;99.90;;;;;;5097588;28;20024;-91
2021/12/04 01:23:37;;;;;;;23.38;18.02;;;4.50;99.90;;;;;;5096738;28;20115;-93
2021/12/04 01:26:02;;;;;;;23.02;17.52;;;4.50;99.90;;;;;;5096802;28;20028;-92
2021/12/04 01:28:28;;;;;;;22.83;18.45;;;4.50;99.90;;;;;;5097732;28;20019;-92
2021/12/04 01:30:54;;;;;;;21.38;16.33;;;4.50;99.90;;;;;;5097556;28;20088;-91
2021/12/04 01:33:20;;;;;;;23.73;17.15;;;4.50;99.90;;;;;;5097072;28;20063;-92
2021/12/04 01:35:46;;;;;;;21.10;16.38;;;4.50;99.90;;;;;;5097915;28;20469;-91
2021/12/04 01:38:11;;;;;;;22.35;16.42;;;4.50;99.90;;;;;;5096425;28;20030;-92
2021/12/04 01:40:38;;;;;;;22.05;16.42;;;4.50;99.90;;;;;;5097357;28;20048;-92
2021/12/04 01:43:05;;;;;;;21.63;16.30;;;4.50;99.90;;;;;;5094858;28;20020;-92
2021/12/04 01:45:31;;;;;;;22.75;17.02;;;4.50;99.90;;;;;;5087111;28;20111;-91
2021/12/04 01:48:01;;;;;;;22.63;16.90;;;4.50;99.90;;;;;;5087919;28;20052;-90
2021/12/04 01:50:28;;;;;;;23.95;18.13;;;4.50;99.90;;;;;;5091725;28;20569;-92
2021/12/04 01:52:56;;;;;;;23.27;18.33;;;4.50;99.90;;;;;;5091043;28;20028;-93
2021/12/04 01:55:27;;;;;;;22.58;17.25;;;4.40;99.90;;;;;;5083822;28;20020;-92
2021/12/04 01:57:53;;;;;;;21.23;16.73;;;4.50;99.90;;;;;;5084852;28;20020;-94
2021/12/04 02:00:19;;;;;;;22.98;16.65;;;4.50;99.90;;;;;;5082134;28;20020;-93
2021/12/04 02:02:45;;;;;;;22.60;16.48;;;4.50;99.90;;;;;;5082915;28;20032;-92
2021/12/04 02:05:11;;;;;;;23.70;17.65;;;4.50;99.90;;;;;;5083907;28;20493;-92
2021/12/04 02:07:36;;;;;;;26.48;19.13;;;4.50;99.90;;;;;;5083881;28;20111;-93
2021/12/04 02:10:06;;;;;;;23.20;17.02;;;4.50;99.90;;;;;;5083743;28;20046;-93
2021/12/04 02:12:32;;;;;;;22.17;18.05;;;4.50;99.90;;;;;;5083778;28;20071;-93
2021/12/04 02:14:59;;;;;;;24.35;18.88;;;4.50;99.90;;;;;;5083767;28;20024;-92
2021/12/04 02:17:25;;;;;;;22.23;17.33;;;4.50;99.90;;;;;;5084587;28;20038;-93
2021/12/04 02:19:54;;;;;;;22.73;17.73;;;4.50;99.90;;;;;;5083143;28;20020;-92
2021/12/04 02:22:20;;;;;;;24.10;19.17;;;4.50;99.90;;;;;;5084407;28;20035;-93
2021/12/04 02:24:45;;;;;;;23.38;18.00;;;4.50;99.90;;;;;;5068006;28;20055;-93
2021/12/04 02:27:13;;;;;;;26.35;19.95;;;4.50;99.90;;;;;;5085211;28;20016;-92
2021/12/04 02:29:47;;;;;;;26.83;20.15;;;4.50;99.90;;;;;;5085288;28;20066;-93
2021/12/04 02:32:15;;;;;;;25.25;19.02;;;4.50;99.90;;;;;;5084812;28;20040;-93
2021/12/04 02:34:40;;;;;;;24.63;19.13;;;4.50;99.90;;;;;;5082986;28;20020;-93
2021/12/04 02:37:08;;;;;;;24.55;18.45;;;4.50;99.90;;;;;;5084407;28;20015;-94
2021/12/04 02:39:37;;;;;;;26.13;19.75;;;4.50;99.90;;;;;;5083915;28;20115;-91
2021/12/04 02:42:07;;;;;;;22.95;18.83;;;4.50;99.90;;;;;;5084094;28;20042;-91
2021/12/04 02:44:39;;;;;;;20.27;16.15;;;4.50;99.90;;;;;;5082545;28;20020;-93
2021/12/04 02:47:05;;;;;;;26.48;19.13;;;4.50;99.90;;;;;;5083312;28;20116;-91
2021/12/04 02:49:31;;;;;;;24.00;17.50;;;4.50;99.90;;;;;;5082396;28;20081;-92
2021/12/04 02:52:04;;;;;;;24.88;17.75;;;4.50;99.90;;;;;;5082431;28;20031;-90
2021/12/04 02:54:30;;;;;;;20.13;15.38;;;4.50;99.90;;;;;;5083114;28;20493;-92
2021/12/04 02:56:56;;;;;;;21.98;17.10;;;4.50;99.90;;;;;;5082473;28;20028;-92
2021/12/04 02:59:23;;;;;;;23.80;16.80;;;4.50;99.90;;;;;;5085123;28;20071;-93
2021/12/04 03:01:53;;;;;;;20.85;16.00;;;4.50;99.90;;;;;;5101552;28;20089;-93
2021/12/04 03:04:19;;;;;;;18.38;14.55;;;4.50;99.90;;;;;;5082259;28;20389;-91
2021/12/04 03:06:46;;;;;;;19.70;15.27;;;4.50;99.90;;;;;;5084132;28;20527;-90
2021/12/04 03:09:14;;;;;;;21.52;16.30;;;4.50;99.90;;;;;;5084088;28;20046;-90
2021/12/04 03:11:40;;;;;;;17.98;13.60;;;4.50;99.90;;;;;;5081247;28;20028;-92
2021/12/04 03:14:06;;;;;;;19.02;13.25;;;4.50;99.90;;;;;;5080772;28;20676;-91
2021/12/04 03:16:33;;;;;;;18.75;13.63;;;4.50;99.90;;;;;;5081097;28;20012;-88
2021/12/04 03:18:59;;;;;;;17.73;13.50;;;4.50;99.90;;;;;;5080391;28;20120;-91
2021/12/04 03:21:25;;;;;;;16.35;13.32;;;4.50;99.90;;;;;;5080847;28;20020;-91
2021/12/04 03:23:55;;;;;;;18.98;14.75;;;4.50;99.90;;;;;;5081411;28;20020;-91
2021/12/04 03:26:21;;;;;;;19.48;13.98;;;4.50;99.90;;;;;;5081710;28;20512;-86
2021/12/04 03:28:50;;;;;;;17.80;12.88;;;4.50;99.90;;;;;;5081499;28;20021;-92
2021/12/04 03:42:12;;;;;;;14.65;10.02;;;4.60;99.90;;;;;;5099887;28;20093;-92
2021/12/04 03:44:39;;;;;;;13.77;9.52;;;4.60;99.90;;;;;;5081912;28;20024;-93
2021/12/04 03:47:05;;;;;;;12.88;9.05;;;4.60;99.90;;;;;;5081091;28;20020;-92
2021/12/04 03:49:31;;;;;;;13.27;8.68;;;4.60;99.90;;;;;;5081298;28;20020;-92
2021/12/04 03:51:57;;;;;;;12.85;8.52;;;4.60;99.90;;;;;;5081290;28;20028;-92
2021/12/04 03:54:23;;;;;;;11.75;8.52;;;4.60;99.90;;;;;;5081612;28;20027;-92
2021/12/04 03:56:51;;;;;;;12.23;9.02;;;4.70;99.90;;;;;;5080542;28;20389;-91
2021/12/04 03:59:20;;;;;;;14.82;10.35;;;4.70;99.90;;;;;;5081792;28;20016;-91
2021/12/04 04:01:46;;;;;;;15.27;10.80;;;4.70;99.90;;;;;;5081230;28;20028;-90
2021/12/04 04:04:11;;;;;;;14.27;10.40;;;4.60;99.90;;;;;;5082018;28;20073;-90
2021/12/04 04:06:37;;;;;;;13.52;10.15;;;4.70;99.90;;;;;;5081715;28;20024;-91
2021/12/04 04:09:04;;;;;;;15.25;9.73;;;4.70;99.90;;;;;;5065284;28;20093;-91
2021/12/04 04:11:30;;;;;;;16.35;11.23;;;4.70;99.90;;;;;;5081649;28;20042;-91
2021/12/04 04:14:16;;;;;;;17.02;11.02;;;4.70;99.90;;;;;;5086283;28;20032;-92
2021/12/04 04:16:44;;;;;;;18.58;12.10;;;4.70;99.90;;;;;;5102304;28;20020;-92
2021/12/04 04:19:10;;;;;;;16.90;11.57;;;4.70;99.90;;;;;;5082252;28;20473;-92
2021/12/04 04:21:41;;;;;;;17.83;11.55;;;4.70;99.90;;;;;;5079518;28;20024;-89
2021/12/04 04:24:13;;;;;;;17.55;11.95;;;4.60;99.90;;;;;;5080156;28;20388;-91
2021/12/04 04:26:43;;;;;;;16.25;11.43;;;4.70;99.90;;;;;;5082409;28;20496;-93
2021/12/04 04:29:10;;;;;;;18.20;12.20;;;4.70;99.90;;;;;;5092357;28;20024;-92
2021/12/04 04:31:45;;;;;;;17.38;11.80;;;4.70;99.90;;;;;;5101057;28;20020;-93
2021/12/04 04:34:12;;;;;;;21.08;12.32;;;4.70;99.90;;;;;;5100934;28;20020;-93
2021/12/04 04:40:10;;;;;;;21.10;12.82;;;4.70;99.90;;;;;;5119185;28;20012;-91
2021/12/04 05:01:22;;;;;;;32.30;17.92;;;4.70;99.90;;;;;;5108103;28;20050;-91
2021/12/04 05:12:11;;;;;;;29.00;17.52;;;4.70;99.90;;;;;;5112743;28;20054;-91
2021/12/04 05:14:40;;;;;;;29.10;17.65;;;4.70;99.90;;;;;;5093715;28;20038;-91
2021/12/04 05:17:16;;;;;;;28.92;16.63;;;4.70;99.90;;;;;;5088784;28;20112;-93
2021/12/04 05:19:52;;;;;;;31.17;17.27;;;4.70;99.90;;;;;;5090419;28;20016;-95
2021/12/04 05:22:35;;;;;;;;;;;;;;;;;;;;;
2021/12/04 05:25:02;;;;;;;31.25;17.77;;;4.70;99.90;;;;;;5105027;28;20138;-92
2021/12/04 05:27:28;;;;;;;42.17;22.08;;;4.70;99.90;;;;;;5092200;28;20076;-91
2021/12/04 05:29:54;;;;;;;34.67;20.67;;;4.70;99.90;;;;;;5073453;28;20032;-92
2021/12/04 05:32:23;;;;;;;36.88;20.35;;;4.60;99.90;;;;;;5090774;28;20581;-90
2021/12/04 05:34:49;;;;;;;31.60;17.75;;;4.70;99.90;;;;;;5090091;28;20016;-91
2021/12/04 05:37:16;;;;;;;36.33;19.30;;;4.70;99.90;;;;;;5093052;28;20035;-92
2021/12/04 05:39:46;;;;;;;29.42;17.77;;;4.70;99.90;;;;;;5076472;28;20096;-91
2021/12/04 05:42:17;;;;;;;37.70;18.95;;;4.70;99.90;;;;;;5092151;28;20108;-91
2021/12/04 05:44:44;;;;;;;34.28;19.30;;;4.70;99.90;;;;;;5087678;28;20032;-91
2021/12/04 05:47:22;;;;;;;38.65;18.73;;;4.70;99.90;;;;;;5087461;28;20023;-91
2021/12/04 05:50:10;;;;;;;30.80;18.63;;;4.70;99.90;;;;;;5086244;28;20021;-90
2021/12/04 05:53:02;;;;;;;31.60;17.83;;;4.70;99.90;;;;;;5084306;28;20084;-92
2021/12/04 05:55:28;;;;;;;33.65;18.33;;;4.70;99.90;;;;;;5084460;28;20052;-93
2021/12/04 05:57:54;;;;;;;29.90;16.40;;;4.70;99.90;;;;;;5084813;28;20024;-91
2021/12/04 06:00:25;;;;;;;39.33;19.92;;;4.70;99.90;;;;;;5084487;28;20028;-92
2021/12/04 06:02:52;;;;;;;33.70;17.42;;;4.60;99.90;;;;;;5084760;28;20028;-92
2021/12/04 06:05:18;;;;;;;32.53;17.10;;;4.70;99.90;;;;;;5085181;28;20024;-92
2021/12/04 06:07:44;;;;;;;32.47;17.85;;;4.70;99.90;;;;;;5085453;28;20095;-90
2021/12/04 06:10:11;;;;;;;30.08;16.25;;;4.70;99.90;;;;;;5085813;28;20016;-92
2021/12/04 06:12:40;;;;;;;27.60;15.15;;;4.70;99.90;;;;;;5085497;28;20024;-93
2021/12/04 06:15:06;;;;;;;31.63;16.38;;;4.70;99.90;;;;;;5084877;28;20016;-92
2021/12/04 06:17:33;;;;;;;34.08;18.52;;;4.70;99.90;;;;;;5085421;28;20078;-94
2021/12/04 06:22:46;;;;;;;35.47;18.08;;;4.70;99.90;;;;;;5102757;28;20065;-93
2021/12/04 06:25:15;;;;;;;28.58;16.25;;;4.70;99.90;;;;;;5082907;28;20029;-93
2021/12/04 06:27:44;;;;;;;34.10;17.77;;;4.70;99.90;;;;;;5085106;28;20024;-92
2021/12/04 06:30:14;;;;;;;32.28;17.15;;;4.70;99.90;;;;;;5085044;28;20020;-94
2021/12/04 06:32:40;;;;;;;28.50;15.68;;;4.70;99.90;;;;;;5085516;28;20070;-91
2021/12/04 06:35:10;;;;;;;25.80;14.93;;;4.70;99.90;;;;;;5088172;28;20020;-91
2021/12/04 06:37:36;;;;;;;26.83;15.52;;;4.70;99.90;;;;;;5084829;28;20024;-93
2021/12/04 06:40:05;;;;;;;28.92;16.08;;;4.70;99.90;;;;;;5092610;28;20083;-93
2021/12/04 06:42:31;;;;;;;32.40;16.10;;;4.70;99.90;;;;;;5097879;28;20014;-91
2021/12/04 06:45:01;;;;;;;27.10;15.43;;;4.70;99.90;;;;;;5094993;28;20024;-90
2021/12/04 06:47:27;;;;;;;27.95;15.98;;;4.70;99.90;;;;;;5096429;28;20016;-92
2021/12/04 06:49:58;;;;;;;24.88;14.73;;;4.70;99.90;;;;;;5086609;28;20063;-93
2021/12/04 06:52:25;;;;;;;22.50;13.98;;;4.70;99.90;;;;;;5089765;28;20052;-93
2021/12/04 06:55:02;;;;;;;31.77;18.08;;;4.70;99.90;;;;;;5085725;28;20035;-92
2021/12/04 06:57:29;;;;;;;31.88;16.25;;;4.80;99.90;;;;;;5086503;28;20031;-92
2021/12/04 06:59:56;;;;;;;26.95;15.68;;;4.70;99.90;;;;;;5085599;28;20016;-91
2021/12/04 07:02:22;;;;;;;37.97;17.60;;;4.70;99.90;;;;;;5083481;28;20028;-90
2021/12/04 07:04:50;;;;;;;26.98;15.93;;;4.70;99.90;;;;;;5082914;28;20052;-92
2021/12/04 07:07:18;;;;;;;26.13;14.57;;;4.70;99.90;;;;;;5082988;28;20075;-93
2021/12/04 07:09:44;;;;;;;27.90;14.55;;;4.70;99.90;;;;;;5082907;28;20020;-92
2021/12/04 07:12:10;;;;;;;31.40;17.50;;;4.70;99.90;;;;;;5083412;28;20038;-93
2021/12/04 07:14:37;;;;;;;32.47;17.30;;;4.80;99.90;;;;;;5082653;28;20085;-92
2021/12/04 07:17:04;;;;;;;35.10;16.25;;;4.80;99.90;;;;;;5083545;28;20027;-93
2021/12/04 07:19:31;;;;;;;39.72;19.38;;;4.70;99.90;;;;;;5082469;28;20023;-93
2021/12/04 07:21:57;;;;;;;37.63;19.05;;;4.80;99.90;;;;;;5083190;28;20474;-93
2021/12/04 07:24:25;;;;;;;29.70;16.27;;;4.70;99.90;;;;;;5083212;28;20020;-92
2021/12/04 07:26:51;;;;;;;40.55;18.83;;;4.70;99.90;;;;;;5083207;28;20024;-92
2021/12/04 07:29:19;;;;;;;38.05;18.85;;;4.80;99.90;;;;;;5082250;28;20003;-91
2021/12/04 07:31:45;;;;;;;41.67;19.33;;;4.80;99.90;;;;;;5081987;28;20028;-92
2021/12/04 07:34:13;;;;;;;33.30;16.67;;;4.80;99.90;;;;;;5081855;28;20027;-91
2021/12/04 07:36:39;;;;;;;42.10;19.48;;;4.80;99.90;;;;;;5081488;28;20130;-92
2021/12/04 07:39:05;;;;;;;48.03;22.55;;;4.80;99.90;;;;;;5082803;28;20045;-93
2021/12/04 07:41:31;;;;;;;45.25;21.65;;;4.80;99.90;;;;;;5081645;28;20111;-93
2021/12/04 07:43:59;;;;;;;51.35;22.30;;;4.80;99.90;;;;;;5081982;28;20046;-92
2021/12/04 07:46:25;;;;;;;43.92;20.08;;;4.80;99.90;;;;;;5081721;28;20033;-91
2021/12/04 07:48:50;;;;;;;40.47;19.15;;;4.80;99.90;;;;;;5082824;28;20024;-91
2021/12/04 07:51:19;;;;;;;43.35;20.20;;;4.80;99.90;;;;;;5083420;28;20083;-92
2021/12/04 07:53:48;;;;;;;43.60;19.40;;;4.80;99.90;;;;;;5094987;28;20052;-91
2021/12/04 07:56:15;;;;;;;34.83;18.23;;;4.80;99.90;;;;;;5093752;28;20088;-91
2021/12/04 07:58:42;;;;;;;34.28;17.45;;;4.90;99.90;;;;;;5082621;28;20020;-93
2021/12/04 08:01:09;;;;;;;36.95;18.23;;;4.80;99.90;;;;;;5082813;28;20035;-92
2021/12/04 08:03:36;;;;;;;40.45;18.67;;;4.90;99.90;;;;;;5082676;28;20024;-91
2021/12/04 08:06:02;;;;;;;39.25;19.80;;;4.90;99.90;;;;;;5081580;28;20492;-93
2021/12/04 08:08:28;;;;;;;37.53;19.65;;;4.90;99.90;;;;;;5082072;28;20032;-92
2021/12/04 08:10:53;;;;;;;38.38;19.98;;;4.90;99.90;;;;;;5082028;28;20511;-91
2021/12/04 08:13:21;;;;;;;38.50;17.25;;;4.90;99.90;;;;;;5079960;28;20028;-92
2021/12/04 08:15:47;;;;;;;40.25;20.15;;;4.90;99.90;;;;;;5080001;28;20028;-91
2021/12/04 08:18:15;;;;;;;41.08;18.77;;;4.90;99.90;;;;;;5080421;28;20664;-93
2021/12/04 08:20:41;;;;;;;41.05;20.08;;;4.90;99.90;;;;;;5064242;28;20016;-93
2021/12/04 08:23:10;;;;;;;34.22;17.80;;;4.90;99.90;;;;;;5079979;28;20101;-92
2021/12/04 08:25:35;;;;;;;42.53;20.30;;;5.00;99.90;;;;;;5081272;28;20046;-92
2021/12/04 08:28:02;;;;;;;45.17;20.60;;;5.00;99.90;;;;;;5081613;28;20543;-91
2021/12/04 08:30:31;;;;;;;42.05;19.83;;;4.90;99.90;;;;;;5080579;28;20495;-91
2021/12/04 08:32:57;;;;;;;34.25;18.35;;;5.00;99.90;;;;;;5079973;28;20043;-93
2021/12/04 08:35:26;;;;;;;43.60;18.90;;;5.00;99.90;;;;;;5080221;28;20085;-92
2021/12/04 08:37:54;;;;;;;36.72;17.13;;;5.00;99.90;;;;;;5080354;28;20103;-92
2021/12/04 08:40:20;;;;;;;29.98;16.80;;;5.00;99.90;;;;;;5080654;28;20047;-91
2021/12/04 08:42:46;;;;;;;38.47;20.33;;;5.00;99.90;;;;;;5079784;28;20457;-92
2021/12/04 08:45:14;;;;;;;33.17;18.13;;;5.00;99.90;;;;;;5080104;28;20031;-91
2021/12/04 08:47:41;;;;;;;36.95;17.70;;;5.00;99.90;;;;;;5080201;28;20008;-90
2021/12/04 08:50:14;;;;;;;35.90;17.15;;;5.00;99.90;;;;;;5063074;28;20039;-91
2021/12/04 08:52:40;;;;;;;39.33;19.65;;;5.00;99.90;;;;;;5080111;28;20040;-91
2021/12/04 08:55:07;;;;;;;40.83;18.70;;;5.00;99.90;;;;;;5081901;28;20051;-91
2021/12/04 08:57:33;;;;;;;35.60;17.80;;;5.10;99.90;;;;;;5083454;28;20055;-91
2021/12/04 08:59:59;;;;;;;42.08;20.48;;;5.10;99.90;;;;;;5083625;28;20020;-88
2021/12/04 09:02:27;;;;;;;46.55;21.23;;;5.10;99.90;;;;;;5082633;28;20115;-91
2021/12/04 09:04:54;;;;;;;43.58;20.30;;;5.10;99.90;;;;;;5082681;28;20095;-93
2021/12/04 09:07:20;;;;;;;42.40;22.05;;;5.10;99.90;;;;;;5083434;28;20374;-93
2021/12/04 09:09:47;;;;;;;47.70;21.15;;;5.10;99.90;;;;;;5088899;28;20004;-92
2021/12/04 09:12:14;;;;;;;43.75;19.75;;;5.10;99.90;;;;;;5087078;28;20367;-92
2021/12/04 09:14:42;;;;;;;49.63;22.73;;;5.20;99.90;;;;;;5084334;28;20035;-91
2021/12/04 09:17:12;;;;;;;45.13;22.42;;;5.20;99.90;;;;;;5085802;28;20048;-93
2021/12/04 09:19:38;;;;;;;49.97;22.67;;;5.20;99.90;;;;;;5084625;28;20054;-90
2021/12/04 09:22:06;;;;;;;55.53;25.02;;;5.20;99.90;;;;;;5086359;22;20049;-93
2021/12/04 09:24:40;;;;;;;46.35;21.92;;;5.20;99.90;;;;;;5040700;28;20112;-93
2021/12/04 09:32:25;;;;;;;39.58;20.08;;;5.20;99.90;;;;;;5040385;28;20049;-92
2021/12/04 10:02:13;;;;;;;37.17;20.27;;;5.40;99.90;;;;;;5072040;28;20051;-90
2021/12/04 10:19:14;;;;;;;38.38;22.25;;;5.40;99.90;;;;;;5088255;28;20033;-91
2021/12/04 10:22:03;;;;;;;42.63;23.33;;;5.40;99.90;;;;;;5069350;28;20500;-87
2021/12/04 10:32:55;;;;;;;38.80;20.20;;;5.50;99.90;;;;;;5088888;28;20185;-87
2021/12/04 10:35:24;;;;;;;42.28;21.13;;;5.50;99.90;;;;;;5072153;28;20485;-87
2021/12/04 10:38:03;;;;;;;47.45;23.20;;;5.50;99.90;;;;;;5071058;28;20040;-88
2021/12/04 10:40:41;;;;;;;45.55;20.67;;;5.50;99.90;;;;;;5070943;28;20021;-89
2021/12/04 10:43:14;;;;;;;48.38;24.00;;;5.60;99.90;;;;;;5052496;28;20490;-89
2021/12/04 10:45:45;;;;;;;62.03;26.27;;;5.60;99.90;;;;;;5069025;28;20095;-88
2021/12/04 10:48:18;;;;;;;52.95;23.10;;;5.60;99.90;;;;;;5052360;28;20041;-89
2021/12/04 10:53:48;;;;;;;46.35;20.35;;;5.50;99.90;;;;;;5073252;28;20044;-88
2021/12/04 11:04:42;;;;;;;51.67;22.67;;;5.50;99.90;;;;;;5087104;28;20569;-88
2021/12/04 11:21:34;;;;;;;35.95;19.17;;;5.60;99.90;;;;;;5085268;28;20035;-90
2021/12/04 11:43:59;;;;;;;34.90;19.13;;;5.70;99.90;;;;;;5093365;22;20086;-91
2021/12/04 11:46:45;;;;;;;30.02;17.70;;;5.70;99.90;;;;;;5068055;28;20024;-90
2021/12/04 11:49:14;;;;;;;31.58;17.73;;;5.70;99.90;;;;;;5083802;28;20056;-90
2021/12/04 11:52:01;;;;;;;33.22;19.27;;;5.70;99.90;;;;;;5079093;28;20028;-90
2021/12/04 11:54:33;;;;;;;32.88;18.40;;;5.70;99.90;;;;;;5058764;28;20392;-91
2021/12/04 11:57:09;;;;;;;33.58;18.77;;;5.70;99.90;;;;;;5077442;28;20105;-89
2021/12/04 11:59:41;;;;;;;33.60;19.58;;;5.70;99.90;;;;;;5061872;28;20031;-88
2021/12/04 12:02:18;;;;;;;30.15;18.15;;;5.70;99.90;;;;;;5070333;28;20497;-86
2021/12/04 12:05:04;;;;;;;30.02;17.75;;;5.60;99.90;;;;;;5085767;28;20102;-89
2021/12/04 12:07:32;;;;;;;30.38;18.38;;;5.60;99.90;;;;;;5066036;28;20020;-87
2021/12/04 12:10:06;;;;;;;36.03;20.70;;;5.60;99.90;;;;;;5081037;28;20063;-88
2021/12/04 12:12:34;;;;;;;30.38;18.88;;;5.60;99.90;;;;;;5081371;28;20040;-88
2021/12/04 12:15:07;;;;;;;33.88;20.30;;;5.60;99.90;;;;;;5083293;28;20031;-86
2021/12/04 12:17:36;;;;;;;34.45;20.42;;;5.60;99.90;;;;;;5064179;28;20032;-90
2021/12/04 12:20:06;;;;;;;32.30;19.10;;;5.50;99.90;;;;;;5082657;28;20023;-85
2021/12/04 12:22:39;;;;;;;30.05;18.88;;;5.50;99.90;;;;;;5083370;28;20078;-87
2021/12/04 12:25:26;;;;;;;30.23;18.70;;;5.50;99.90;;;;;;5086089;28;20051;-84
2021/12/04 12:33:41;;;;;;;25.30;16.00;;;5.60;99.90;;;;;;5093059;28;20043;-85
2021/12/04 12:36:14;;;;;;;25.35;16.35;;;5.60;99.90;;;;;;5088491;28;20028;-89
2021/12/04 12:38:58;;;;;;;25.45;16.83;;;5.60;99.90;;;;;;5094136;28;20028;-85
2021/12/04 12:41:37;;;;;;;26.30;15.93;;;5.60;99.90;;;;;;5078818;28;20028;-84
2021/12/04 12:44:05;;;;;;;27.10;16.60;;;5.60;99.90;;;;;;5080257;28;20040;-86
2021/12/04 12:46:44;;;;;;;27.63;16.17;;;5.70;99.90;;;;;;5081104;28;20036;-90
2021/12/04 12:49:26;;;;;;;31.65;18.10;;;5.60;99.90;;;;;;5080960;28;20028;-90
2021/12/04 12:52:12;;;;;;;27.00;17.23;;;5.60;99.90;;;;;;5080886;28;20009;-89
2021/12/04 12:54:45;;;;;;;23.50;15.27;;;5.60;99.90;;;;;;5098523;28;20033;-85
2021/12/04 12:57:24;;;;;;;22.90;14.93;;;5.60;99.90;;;;;;5081202;28;20016;-88
2021/12/04 13:11:47;;;;;;;26.52;17.10;;;5.70;99.90;;;;;;5097523;28;20092;-88
2021/12/04 13:14:16;;;;;;;29.77;20.60;;;5.60;99.90;;;;;;5097846;28;20012;-88
2021/12/04 13:16:51;;;;;;;26.48;18.83;;;5.60;99.90;;;;;;5096443;28;20036;-91
2021/12/04 13:19:21;;;;;;;28.40;18.85;;;5.60;99.90;;;;;;5066531;28;20025;-88
2021/12/04 13:21:58;;;;;;;25.45;16.75;;;5.60;99.90;;;;;;5084087;28;20078;-91
2021/12/04 13:24:30;;;;;;;25.17;17.30;;;5.60;99.90;;;;;;5066700;28;20041;-87
2021/12/04 13:29:39;;;;;;;24.20;16.67;;;5.60;99.90;;;;;;5066727;28;20025;-86
2021/12/04 13:32:10;;;;;;;23.45;16.13;;;5.60;99.90;;;;;;5051636;28;20079;-89
2021/12/04 13:34:37;;;;;;;23.67;16.15;;;5.70;99.90;;;;;;5048247;28;20025;-84
2021/12/04 13:37:07;;;;;;;23.83;17.70;;;5.60;99.90;;;;;;5057180;28;20013;-88
2021/12/04 13:39:43;;;;;;;23.10;16.13;;;5.70;99.90;;;;;;5066917;28;20029;-86
2021/12/04 13:42:10;;;;;;;24.10;16.55;;;5.70;99.90;;;;;;5065513;28;20025;-87
2021/12/04 13:44:36;;;;;;;26.88;18.05;;;5.70;99.90;;;;;;5031173;28;20482;-90
2021/12/04 13:47:07;;;;;;;26.77;18.42;;;5.60;99.90;;;;;;5045250;28;20033;-89
2021/12/04 13:49:38;;;;;;;25.63;18.10;;;5.60;99.90;;;;;;5038527;28;20114;-87
2021/12/04 13:52:10;;;;;;;25.83;17.58;;;5.60;99.90;;;;;;5053640;28;20025;-90
2021/12/04 13:54:41;;;;;;;26.75;18.85;;;5.60;99.90;;;;;;5067531;28;20664;-92
2021/12/04 13:57:09;;;;;;;29.95;20.27;;;5.60;99.90;;;;;;5068991;28;20487;-85
2021/12/04 13:59:35;;;;;;;30.13;21.00;;;5.60;99.90;;;;;;5066138;28;20082;-88
2021/12/04 14:02:02;;;;;;;27.35;19.73;;;5.60;99.90;;;;;;5071183;28;20025;-84
2021/12/04 14:04:28;;;;;;;27.67;19.65;;;5.60;99.90;;;;;;5047797;28;20028;-83
2021/12/04 14:07:05;;;;;;;31.17;20.20;;;5.60;99.90;;;;;;5081994;28;20659;-88
2021/12/04 14:09:37;;;;;;;32.72;21.80;;;5.60;99.90;;;;;;5049441;28;20085;-86
2021/12/04 14:12:05;;;;;;;32.65;22.85;;;5.60;99.90;;;;;;5046769;28;20483;-90
2021/12/04 14:14:33;;;;;;;33.47;22.13;;;5.60;99.90;;;;;;5062714;28;20024;-89
2021/12/04 14:17:13;;;;;;;32.80;22.70;;;5.60;99.90;;;;;;5060369;28;20040;-89
2021/12/04 14:19:40;;;;;;;31.88;21.80;;;5.60;99.90;;;;;;5039850;28;20029;-91
2021/12/04 14:22:09;;;;;;;33.42;22.85;;;5.70;99.90;;;;;;5039014;28;20048;-91
2021/12/04 14:24:42;;;;;;;32.90;22.90;;;5.60;99.90;;;;;;5039379;28;20113;-92
2021/12/04 14:27:10;;;;;;;34.42;24.05;;;5.60;99.90;;;;;;5050654;28;20020;-87
2021/12/04 14:29:39;;;;;;;34.20;23.02;;;5.60;99.90;;;;;;5065965;28;20032;-89
2021/12/04 14:32:05;;;;;;;32.88;22.27;;;5.60;99.90;;;;;;5056574;28;20111;-90
2021/12/04 14:34:32;;;;;;;34.65;22.52;;;5.60;99.90;;;;;;5051695;28;20076;-89
2021/12/04 14:37:10;;;;;;;32.95;23.45;;;5.60;99.90;;;;;;5063627;28;20035;-85
2021/12/04 14:39:36;;;;;;;29.38;20.58;;;5.60;99.90;;;;;;5043846;28;20033;-86
2021/12/04 14:42:17;;;;;;;30.95;20.85;;;5.60;99.90;;;;;;5052939;28;20056;-90
2021/12/04 14:44:53;;;;;;;31.60;20.30;;;5.60;99.90;;;;;;5054005;28;20451;-87
2021/12/04 14:47:21;;;;;;;28.55;20.40;;;5.70;99.90;;;;;;5055122;28;20108;-89
2021/12/04 14:49:50;;;;;;;27.20;19.38;;;5.60;99.90;;;;;;5071336;28;20028;-89
2021/12/04 14:52:24;;;;;;;26.75;18.42;;;5.60;99.90;;;;;;5057605;28;20075;-90
2021/12/04 14:54:50;;;;;;;26.88;17.77;;;5.70;99.90;;;;;;5057952;28;20029;-89
2021/12/04 14:57:21;;;;;;;26.52;19.23;;;5.70;99.90;;;;;;5064990;28;20028;-88
2021/12/04 14:59:58;;;;;;;26.02;17.75;;;5.70;99.90;;;;;;5057006;28;20070;-91
2021/12/04 15:02:24;;;;;;;25.05;17.95;;;5.70;99.90;;;;;;5061917;28;20016;-90
2021/12/04 15:04:52;;;;;;;26.60;18.75;;;5.70;99.90;;;;;;5065003;28;20028;-89
2021/12/04 15:07:38;;;;;;;26.38;18.20;;;5.70;99.90;;;;;;5048047;28;20025;-86
2021/12/04 15:10:24;;;;;;;26.15;18.60;;;5.70;99.90;;;;;;5036109;28;20036;-88
2021/12/04 15:12:56;;;;;;;27.92;19.67;;;5.70;99.90;;;;;;5038359;28;20581;-90
2021/12/04 15:15:31;;;;;;;27.35;18.65;;;5.70;99.90;;;;;;5050877;28;20739;-90
2021/12/04 15:18:00;;;;;;;25.75;18.38;;;5.70;99.90;;;;;;5063280;28;20545;-91
2021/12/04 15:20:33;;;;;;;24.98;18.13;;;5.70;99.90;;;;;;5063426;28;20027;-85
2021/12/04 15:23:07;;;;;;;;;;;5.70;99.90;;;;;;5048142;28;20490;-92
2021/12/04 15:25:37;;;;;;;27.07;18.07;;;5.70;99.90;;;;;;5039159;28;20385;-90
2021/12/04 15:28:26;;;;;;;26.70;17.70;;;5.70;99.90;;;;;;5043173;28;20025;-87
2021/12/04 15:30:56;;;;;;;27.17;18.67;;;5.70;99.90;;;;;;5065960;28;20033;-87
2021/12/04 15:33:46;;;;;;;29.42;19.02;;;5.70;99.90;;;;;;5047424;28;20532;-88
2021/12/04 15:36:39;;;;;;;28.58;18.60;;;5.70;99.90;;;;;;5082499;28;20700;-86
2021/12/04 15:39:14;;;;;;;29.02;18.42;;;5.70;99.90;;;;;;5053494;28;20074;-89
2021/12/04 15:42:29;;;;;;;27.73;19.38;;;5.70;99.90;;;;;;5028651;28;20025;-87
2021/12/04 15:48:20;;;;;;;30.65;19.73;;;5.70;99.90;;;;;;5078492;28;20039;-86
2021/12/04 15:50:56;;;;;;;29.23;19.50;;;5.80;99.90;;;;;;5067503;28;20052;-88
2021/12/04 15:53:32;;;;;;;32.47;20.05;;;5.70;99.90;;;;;;5061209;28;20033;-89